createdAt,value
2023-05-03T00:01:53.569Z,1.80
2023-05-03T00:04:20.177Z,1.30
2023-05-03T00:06:46.817Z,1.65
2023-05-03T00:09:14.167Z,1.45
2023-05-03T00:11:40.697Z,1.48
2023-05-03T00:14:07.145Z,1.40
2023-05-03T00:16:33.576Z,1.58
2023-05-03T00:18:59.945Z,1.55
2023-05-03T00:21:27.119Z,1.42
2023-05-03T00:23:53.599Z,1.50
2023-05-03T00:26:21.457Z,1.38
2023-05-03T00:28:48.270Z,1.50
2023-05-03T00:31:14.793Z,1.65
2023-05-03T00:33:41.734Z,1.50
2023-05-03T00:36:13.193Z,1.60
2023-05-03T00:38:40.698Z,1.40
2023-05-03T00:41:09.084Z,1.63
2023-05-03T00:43:36.105Z,1.52
2023-05-03T00:46:15.772Z,1.60
2023-05-03T00:51:14.430Z,1.77
2023-05-03T00:53:44.856Z,2.75
2023-05-03T00:56:12.009Z,1.52
2023-05-03T00:58:40.403Z,1.80
2023-05-03T01:01:07.685Z,1.60
2023-05-03T01:03:36.626Z,1.92
2023-05-03T01:06:15.701Z,1.50
2023-05-03T01:08:53.479Z,2.10
2023-05-03T01:11:30.083Z,1.50
2023-05-03T01:14:03.868Z,1.67
2023-05-03T01:16:42.643Z,1.80
2023-05-03T01:19:23.311Z,1.77
2023-05-03T01:21:59.481Z,1.58
2023-05-03T01:24:26.313Z,1.88
2023-05-03T01:26:52.791Z,1.70
2023-05-03T01:29:19.258Z,1.60
2023-05-03T01:31:57.643Z,1.67
2023-05-03T01:34:50.820Z,1.67
2023-05-03T01:37:18.364Z,1.95
2023-05-03T01:39:51.238Z,1.73
2023-05-03T01:42:18.895Z,1.52
2023-05-03T01:44:48.138Z,1.50
2023-05-03T01:47:15.203Z,1.77
2023-05-03T01:49:41.749Z,1.60
2023-05-03T01:52:08.425Z,1.90
2023-05-03T01:54:34.845Z,1.83
2023-05-03T01:57:01.804Z,1.70
2023-05-03T01:59:28.377Z,1.55
2023-05-03T02:01:54.868Z,1.60
2023-05-03T02:04:21.340Z,1.90
2023-05-03T02:06:47.873Z,2.13
2023-05-03T02:09:14.619Z,1.58
2023-05-03T02:11:41.077Z,2.00
2023-05-03T02:14:07.962Z,1.73
2023-05-03T02:16:34.514Z,2.05
2023-05-03T02:19:01.044Z,1.70
2023-05-03T02:21:27.446Z,1.73
2023-05-03T02:23:54.251Z,2.65
2023-05-03T02:26:21.595Z,1.77
2023-05-03T02:28:48.029Z,1.90
2023-05-03T02:31:14.602Z,2.03
2023-05-03T02:33:42.603Z,1.83
2023-05-03T02:36:09.129Z,1.95
2023-05-03T02:38:35.829Z,1.83
2023-05-03T02:41:02.493Z,1.67
2023-05-03T02:43:30.193Z,1.88
2023-05-03T02:45:57.735Z,1.50
2023-05-03T02:48:25.531Z,1.48
2023-05-03T02:50:53.094Z,1.50
2023-05-03T02:53:19.519Z,1.63
2023-05-03T02:55:46.671Z,1.65
2023-05-03T02:58:13.447Z,1.85
2023-05-03T03:00:39.982Z,2.20
2023-05-03T03:03:06.641Z,1.88
2023-05-03T03:05:33.368Z,1.80
2023-05-03T03:08:00.109Z,1.60
2023-05-03T03:10:27.618Z,1.80
2023-05-03T03:12:54.320Z,1.65
2023-05-03T03:15:31.534Z,1.40
2023-05-03T03:17:58.251Z,1.67
2023-05-03T03:20:25.616Z,1.60
2023-05-03T03:22:52.790Z,1.80
2023-05-03T03:25:20.074Z,1.75
2023-05-03T03:27:46.514Z,1.50
2023-05-03T03:30:13.142Z,1.77
2023-05-03T03:32:50.547Z,1.65
2023-05-03T03:35:25.995Z,2.13
2023-05-03T03:37:53.643Z,1.60
2023-05-03T03:40:22.130Z,1.65
2023-05-03T03:42:50.948Z,1.75
2023-05-03T03:45:17.487Z,1.67
2023-05-03T03:47:44.284Z,1.63
2023-05-03T03:50:11.676Z,2.00
2023-05-03T03:52:38.744Z,1.90
2023-05-03T03:55:06.640Z,1.60
2023-05-03T03:57:33.334Z,1.50
2023-05-03T04:00:00.304Z,1.42
2023-05-03T04:02:28.193Z,1.70
2023-05-03T04:04:55.098Z,1.63
2023-05-03T04:07:21.982Z,1.63
2023-05-03T04:09:49.013Z,1.70
2023-05-03T04:12:15.660Z,2.00
2023-05-03T04:14:44.541Z,1.92
2023-05-03T04:17:11.097Z,1.70
2023-05-03T04:19:38.880Z,1.83
2023-05-03T04:22:06.296Z,1.92
2023-05-03T04:24:32.790Z,1.92
2023-05-03T04:27:01.940Z,1.70
2023-05-03T04:29:29.802Z,1.85
2023-05-03T04:31:56.313Z,1.80
2023-05-03T04:34:23.523Z,1.98
2023-05-03T04:36:52.739Z,1.65
2023-05-03T04:39:19.579Z,1.88
2023-05-03T04:41:47.586Z,1.85
2023-05-03T04:44:16.478Z,1.90
2023-05-03T04:46:44.978Z,1.85
2023-05-03T04:49:11.501Z,1.80
2023-05-03T04:51:38.288Z,1.67
2023-05-03T04:54:05.264Z,2.22
2023-05-03T04:56:34.614Z,1.90
2023-05-03T04:59:10.585Z,2.10
2023-05-03T05:01:37.742Z,2.13
2023-05-03T05:04:05.925Z,1.73
2023-05-03T05:06:38.863Z,1.90
2023-05-03T05:09:21.056Z,1.92
2023-05-03T05:11:48.547Z,1.58
2023-05-03T05:14:15.381Z,1.50
2023-05-03T05:16:42.270Z,1.90
2023-05-03T05:19:08.937Z,1.92
2023-05-03T05:21:35.430Z,1.60
2023-05-03T05:24:03.038Z,1.85
2023-05-03T05:26:29.706Z,1.52
2023-05-03T05:28:56.371Z,1.48
2023-05-03T05:31:24.124Z,1.90
2023-05-03T05:33:52.016Z,1.60
2023-05-03T05:36:18.719Z,1.65
2023-05-03T05:38:45.676Z,1.58
2023-05-03T05:41:12.250Z,1.90
2023-05-03T05:43:40.801Z,1.63
2023-05-03T05:46:08.350Z,1.67
2023-05-03T05:48:35.489Z,1.42
2023-05-03T05:51:02.869Z,1.58
2023-05-03T05:53:29.489Z,1.40
2023-05-03T05:55:59.928Z,1.52
2023-05-03T05:58:28.838Z,1.48
2023-05-03T06:01:04.790Z,1.33
2023-05-03T06:03:35.502Z,1.40
2023-05-03T06:06:04.483Z,1.42
2023-05-03T06:08:31.212Z,1.70
2023-05-03T06:10:57.732Z,1.58
2023-05-03T06:13:26.318Z,1.40
2023-05-03T06:15:53.730Z,1.25
2023-05-03T06:18:20.280Z,1.90
2023-05-03T06:20:50.267Z,1.30
2023-05-03T06:23:17.744Z,1.10
2023-05-03T06:25:47.809Z,1.10
2023-05-03T06:28:15.906Z,1.10
2023-05-03T06:30:42.483Z,1.20
2023-05-03T06:33:14.637Z,1.20
2023-05-03T06:35:42.964Z,1.20
2023-05-03T06:38:11.865Z,1.10
2023-05-03T06:40:38.551Z,1.40
2023-05-03T06:43:05.355Z,1.50
2023-05-03T06:45:35.813Z,1.05
2023-05-03T06:48:06.358Z,1.15
2023-05-03T06:50:33.107Z,1.10
2023-05-03T06:52:59.578Z,1.23
2023-05-03T06:55:26.051Z,1.40
2023-05-03T06:57:53.018Z,1.15
2023-05-03T07:00:20.965Z,1.30
2023-05-03T07:02:47.536Z,1.23
2023-05-03T07:05:14.065Z,1.30
2023-05-03T07:07:40.562Z,1.17
2023-05-03T07:10:08.555Z,1.30
2023-05-03T07:12:34.990Z,1.20
2023-05-03T07:15:01.481Z,1.45
2023-05-03T07:17:28.084Z,1.30
2023-05-03T07:19:54.577Z,1.10
2023-05-03T07:22:24.773Z,1.23
2023-05-03T07:24:59.589Z,1.20
2023-05-03T07:27:26.860Z,1.30
2023-05-03T07:29:53.493Z,1.00
2023-05-03T07:32:20.053Z,1.10
2023-05-03T07:34:47.658Z,0.90
2023-05-03T07:37:14.406Z,1.00
2023-05-03T07:39:41.316Z,1.15
2023-05-03T07:42:08.521Z,1.05
2023-05-03T07:44:35.005Z,0.88
2023-05-03T07:47:01.477Z,1.00
2023-05-03T07:49:28.137Z,1.13
2023-05-03T07:51:54.538Z,1.23
2023-05-03T07:54:21.048Z,0.90
2023-05-03T07:56:48.619Z,0.82
2023-05-03T07:59:15.099Z,1.02
2023-05-03T08:01:41.572Z,1.20
2023-05-03T08:04:08.407Z,0.93
2023-05-03T08:06:35.868Z,1.00
2023-05-03T08:09:02.521Z,1.30
2023-05-03T08:11:29.113Z,1.00
2023-05-03T08:13:56.523Z,1.13
2023-05-03T08:16:23.221Z,1.02
2023-05-03T08:18:50.021Z,0.93
2023-05-03T08:21:17.634Z,1.45
2023-05-03T08:23:44.904Z,1.33
2023-05-03T08:26:14.375Z,1.20
2023-05-03T08:28:41.328Z,1.13
2023-05-03T08:31:07.943Z,1.52
2023-05-03T08:33:34.570Z,0.93
2023-05-03T08:36:01.619Z,1.15
2023-05-03T08:38:28.736Z,1.08
2023-05-03T08:40:59.435Z,1.10
2023-05-03T08:43:28.043Z,1.05
2023-05-03T08:45:54.490Z,1.00
2023-05-03T08:48:21.276Z,0.93
2023-05-03T08:50:51.657Z,1.02
2023-05-03T08:53:18.275Z,1.00
2023-05-03T08:55:45.346Z,1.17
2023-05-03T08:58:13.202Z,1.20
2023-05-03T09:00:41.624Z,1.30
2023-05-03T09:05:38.682Z,1.00
2023-05-03T09:08:09.979Z,1.10
2023-05-03T09:10:41.490Z,1.27
2023-05-03T09:13:09.273Z,1.00
2023-05-03T09:15:36.150Z,1.17
2023-05-03T09:18:08.724Z,1.20
2023-05-03T09:20:36.939Z,1.20
2023-05-03T09:23:03.512Z,1.17
2023-05-03T09:25:49.350Z,1.10
2023-05-03T09:28:17.786Z,1.70
2023-05-03T09:30:45.020Z,1.35
2023-05-03T09:33:11.832Z,1.50
2023-05-03T09:35:38.851Z,1.45
2023-05-03T09:38:05.939Z,1.08
2023-05-03T09:40:32.456Z,1.17
2023-05-03T09:43:09.523Z,1.50
2023-05-03T09:45:38.979Z,1.60
2023-05-03T09:48:07.307Z,1.20
2023-05-03T09:50:36.269Z,1.20
2023-05-03T09:53:04.578Z,1.17
2023-05-03T09:55:36.190Z,1.33
2023-05-03T09:58:07.009Z,1.40
2023-05-03T10:00:38.619Z,1.20
2023-05-03T10:03:10.287Z,1.33
2023-05-03T10:05:46.058Z,1.40
2023-05-03T10:08:25.916Z,1.42
2023-05-03T10:10:54.057Z,1.30
2023-05-03T10:15:58.801Z,1.42
2023-05-03T10:18:28.654Z,1.23
2023-05-03T10:21:01.208Z,1.80
2023-05-03T10:23:27.632Z,1.20
2023-05-03T10:26:06.974Z,1.60
2023-05-03T10:28:34.172Z,1.90
2023-05-03T10:31:00.661Z,1.35
2023-05-03T10:33:32.120Z,1.30
2023-05-03T10:36:00.383Z,1.55
2023-05-03T10:38:28.866Z,1.63
2023-05-03T10:40:56.695Z,1.52
2023-05-03T10:43:32.091Z,1.63
2023-05-03T10:46:06.494Z,1.52
2023-05-03T10:48:34.210Z,1.42
2023-05-03T10:51:37.115Z,1.90
2023-05-03T10:54:04.044Z,2.08
2023-05-03T10:56:30.670Z,1.50
2023-05-03T10:58:58.629Z,1.63
2023-05-03T11:04:06.511Z,1.65
2023-05-03T11:06:38.114Z,1.80
2023-05-03T11:09:09.782Z,1.58
2023-05-03T11:11:41.221Z,1.60
2023-05-03T11:14:09.561Z,2.05
2023-05-03T11:16:36.961Z,1.73
2023-05-03T11:19:03.687Z,1.65
2023-05-03T11:21:31.342Z,1.90
2023-05-03T11:23:59.164Z,1.65
2023-05-03T11:26:26.262Z,2.08
2023-05-03T11:28:54.361Z,1.73
2023-05-03T11:31:21.567Z,2.60
2023-05-03T11:33:49.559Z,1.67
2023-05-03T11:36:16.150Z,2.05
2023-05-03T11:38:42.699Z,1.98
2023-05-03T11:41:14.465Z,1.95
2023-05-03T11:43:52.983Z,1.80
2023-05-03T11:46:31.921Z,1.92
2023-05-03T11:48:58.487Z,2.03
2023-05-03T11:51:27.153Z,1.77
2023-05-03T11:53:53.676Z,2.00
2023-05-03T11:56:21.974Z,1.90
2023-05-03T11:58:59.670Z,2.20
2023-05-03T12:01:28.774Z,1.98
2023-05-03T12:03:59.462Z,1.83
2023-05-03T12:06:28.852Z,1.80
2023-05-03T12:08:56.379Z,2.13
2023-05-03T12:11:26.030Z,2.13
2023-05-03T12:13:58.888Z,2.28
2023-05-03T12:16:26.008Z,2.28
2023-05-03T12:18:55.956Z,2.10
2023-05-03T12:21:30.476Z,2.28
2023-05-03T12:24:01.221Z,2.75
2023-05-03T12:26:28.122Z,2.53
2023-05-03T12:28:56.719Z,2.10
2023-05-03T12:31:23.844Z,2.20
2023-05-03T12:34:12.047Z,2.15
2023-05-03T12:36:38.225Z,2.28
2023-05-03T12:39:09.270Z,2.17
2023-05-03T12:44:09.814Z,1.95
2023-05-03T12:46:38.046Z,2.88
2023-05-03T12:49:07.489Z,2.42
2023-05-03T12:51:35.159Z,2.13
2023-05-03T12:54:02.358Z,2.17
2023-05-03T12:56:32.585Z,2.53
2023-05-03T12:59:23.137Z,2.65
2023-05-03T13:02:41.570Z,2.83
2023-05-03T13:05:11.428Z,2.40
2023-05-03T13:07:28.096Z,2.30
2023-05-03T13:12:30.803Z,2.47
2023-05-03T13:17:24.727Z,2.10
2023-05-03T13:19:52.267Z,2.65
2023-05-03T13:22:18.932Z,2.60
2023-05-03T13:24:47.229Z,2.58
2023-05-03T13:27:14.048Z,2.63
2023-05-03T13:29:41.109Z,2.42
2023-05-03T13:32:09.345Z,2.45
2023-05-03T13:34:36.222Z,2.25
2023-05-03T13:37:04.108Z,2.30
2023-05-03T13:39:30.723Z,2.38
2023-05-03T13:41:57.357Z,2.72
2023-05-03T13:44:25.292Z,2.88
2023-05-03T13:46:55.674Z,2.42
2023-05-03T13:49:22.300Z,2.72
2023-05-03T13:51:48.807Z,2.60
2023-05-03T13:54:15.409Z,3.00
2023-05-03T13:56:45.756Z,2.42
2023-05-03T13:59:16.445Z,2.30
2023-05-03T14:01:43.361Z,2.25
2023-05-03T14:04:10.221Z,2.30
2023-05-03T14:06:40.080Z,2.60
2023-05-03T14:09:07.751Z,2.10
2023-05-03T14:11:36.032Z,2.28
2023-05-03T14:14:03.107Z,2.30
2023-05-03T14:18:59.600Z,2.15
2023-05-03T14:21:26.404Z,2.22
2023-05-03T14:23:54.199Z,2.42
2023-05-03T14:26:22.021Z,2.20
2023-05-03T14:28:48.434Z,2.28
2023-05-03T14:31:14.981Z,2.00
2023-05-03T14:33:41.623Z,2.13
2023-05-03T14:36:08.734Z,2.08
2023-05-03T14:38:35.982Z,2.42
2023-05-03T14:41:02.927Z,2.42
2023-05-03T14:43:29.395Z,2.00
2023-05-03T14:45:55.905Z,1.90
2023-05-03T14:48:22.461Z,2.30
2023-05-03T14:50:52.267Z,2.17
2023-05-03T14:53:19.355Z,2.10
2023-05-03T14:55:46.198Z,2.05
2023-05-03T14:58:13.414Z,2.15
2023-05-03T15:00:41.354Z,2.33
2023-05-03T15:03:11.630Z,2.40
2023-05-03T15:05:49.154Z,2.38
2023-05-03T15:08:17.741Z,2.28
2023-05-03T15:10:44.708Z,2.72
2023-05-03T15:13:12.489Z,2.53
2023-05-03T15:15:40.524Z,1.92
2023-05-03T15:18:08.747Z,2.10
2023-05-03T15:20:35.747Z,1.95
2023-05-03T15:23:04.062Z,2.35
2023-05-03T15:25:31.084Z,2.30
2023-05-03T15:27:57.646Z,2.67
2023-05-03T15:30:24.109Z,2.45
2023-05-03T15:32:51.274Z,2.53
2023-05-03T15:35:18.059Z,2.60
2023-05-03T15:37:44.584Z,2.35
2023-05-03T15:40:11.850Z,2.90
2023-05-03T15:42:38.668Z,2.08
2023-05-03T15:45:07.266Z,2.40
2023-05-03T15:47:33.809Z,2.20
2023-05-03T15:50:00.426Z,2.78
2023-05-03T15:52:26.897Z,2.72
2023-05-03T15:54:54.820Z,2.50
2023-05-03T15:57:22.540Z,2.70
2023-05-03T15:59:49.416Z,2.17
2023-05-03T16:02:16.185Z,2.47
2023-05-03T16:04:42.913Z,2.13
2023-05-03T16:07:09.464Z,1.98
2023-05-03T16:09:36.040Z,2.60
2023-05-03T16:12:03.719Z,2.70
2023-05-03T16:14:32.576Z,2.33
2023-05-03T16:17:01.749Z,2.38
2023-05-03T16:19:28.242Z,2.70
2023-05-03T16:21:54.712Z,2.35
2023-05-03T16:24:21.440Z,2.83
2023-05-03T16:26:47.892Z,2.65
2023-05-03T16:29:14.439Z,2.50
2023-05-03T16:31:40.996Z,2.55
2023-05-03T16:34:07.797Z,2.95
2023-05-03T16:36:34.253Z,2.67
2023-05-03T16:39:00.758Z,3.13
2023-05-03T16:41:27.236Z,2.67
2023-05-03T16:43:53.609Z,2.88
2023-05-03T16:46:21.739Z,2.95
2023-05-03T16:48:48.706Z,2.30
2023-05-03T16:51:20.355Z,2.92
2023-05-03T16:53:46.864Z,3.05
2023-05-03T16:56:13.320Z,2.92
2023-05-03T16:58:39.866Z,2.53
2023-05-03T17:01:07.678Z,3.03
2023-05-03T17:03:34.227Z,2.92
2023-05-03T17:06:01.563Z,2.40
2023-05-03T17:08:30.268Z,2.67
2023-05-03T17:10:57.805Z,2.75
2023-05-03T17:13:24.669Z,3.30
2023-05-03T17:15:51.078Z,3.10
2023-05-03T17:18:17.678Z,3.00
2023-05-03T17:20:44.129Z,2.92
2023-05-03T17:23:10.833Z,3.03
2023-05-03T17:25:37.301Z,3.03
2023-05-03T17:28:03.778Z,2.92
2023-05-03T17:30:30.278Z,2.70
2023-05-03T17:32:57.878Z,3.10
2023-05-03T17:35:24.385Z,3.08
2023-05-03T17:37:50.867Z,3.33
2023-05-03T17:40:17.490Z,3.17
2023-05-03T17:42:45.406Z,2.95
2023-05-03T17:45:12.254Z,2.70
2023-05-03T17:47:38.834Z,2.70
2023-05-03T17:50:06.330Z,2.55
2023-05-03T17:52:33.006Z,3.15
2023-05-03T17:54:59.461Z,3.13
2023-05-03T17:57:26.473Z,2.88
2023-05-03T17:59:52.931Z,3.10
2023-05-03T18:02:19.461Z,2.70
2023-05-03T18:04:46.861Z,3.05
2023-05-03T18:07:14.816Z,2.65
2023-05-03T18:09:41.308Z,2.95
2023-05-03T18:12:07.734Z,2.83
2023-05-03T18:14:37.370Z,2.70
2023-05-03T18:17:03.915Z,2.85
2023-05-03T18:19:31.242Z,2.90
2023-05-03T18:21:57.783Z,2.38
2023-05-03T18:24:24.267Z,2.60
2023-05-03T18:26:50.821Z,2.55
2023-05-03T18:29:17.342Z,2.35
2023-05-03T18:31:43.858Z,2.60
2023-05-03T18:34:10.369Z,2.42
2023-05-03T18:36:36.851Z,2.75
2023-05-03T18:39:05.028Z,2.90
2023-05-03T18:41:32.802Z,2.80
2023-05-03T18:43:59.288Z,3.10
2023-05-03T18:46:25.789Z,2.53
2023-05-03T18:48:53.159Z,3.58
2023-05-03T18:51:19.681Z,2.72
2023-05-03T18:53:46.189Z,2.58
2023-05-03T18:56:13.242Z,2.65
2023-05-03T18:58:39.687Z,2.72
2023-05-03T19:01:06.608Z,2.55
2023-05-03T19:03:33.354Z,2.95
2023-05-03T19:06:04.115Z,3.15
2023-05-03T19:08:31.192Z,3.03
2023-05-03T19:10:57.623Z,3.05
2023-05-03T19:13:25.495Z,2.90
2023-05-03T19:15:52.114Z,3.00
2023-05-03T19:18:18.561Z,2.92
2023-05-03T19:20:45.093Z,3.30
2023-05-03T19:23:11.559Z,2.80
2023-05-03T19:25:38.058Z,3.03
2023-05-03T19:28:06.603Z,3.00
2023-05-03T19:30:33.455Z,3.20
2023-05-03T19:33:00.815Z,3.60
2023-05-03T19:35:27.325Z,4.22
2023-05-03T19:37:53.871Z,4.10
2023-05-03T19:40:21.502Z,3.53
2023-05-03T19:42:47.960Z,3.22
2023-05-03T19:45:14.576Z,2.92
2023-05-03T19:47:41.071Z,3.40
2023-05-03T19:50:07.845Z,3.42
2023-05-03T19:52:34.392Z,3.03
2023-05-03T19:55:02.410Z,3.03
2023-05-03T19:57:28.972Z,3.30
2023-05-03T19:59:55.368Z,2.80
2023-05-03T20:02:24.189Z,2.88
2023-05-03T20:04:51.517Z,3.30
2023-05-03T20:07:17.955Z,3.20
2023-05-03T20:09:44.454Z,3.30
2023-05-03T20:12:12.017Z,3.45
2023-05-03T20:14:38.549Z,3.03
2023-05-03T20:17:05.068Z,3.40
2023-05-03T20:19:31.461Z,2.90
2023-05-03T20:21:58.238Z,3.40
2023-05-03T20:24:24.674Z,3.38
2023-05-03T20:26:52.375Z,3.35
2023-05-03T20:29:19.003Z,3.17
2023-05-03T20:31:48.218Z,3.30
2023-05-03T20:34:15.130Z,2.85
2023-05-03T20:36:41.590Z,3.38
2023-05-03T20:39:09.650Z,3.47
2023-05-03T20:41:36.314Z,3.13
2023-05-03T20:44:02.757Z,3.28
2023-05-03T20:46:29.233Z,3.30
2023-05-03T20:48:55.798Z,3.67
2023-05-03T20:51:22.313Z,3.05
2023-05-03T20:53:48.822Z,3.58
2023-05-03T20:56:17.389Z,3.15
2023-05-03T20:58:45.346Z,3.42
2023-05-03T21:01:11.947Z,2.80
2023-05-03T21:03:38.438Z,3.50
2023-05-03T21:06:05.860Z,3.42
2023-05-03T21:08:35.832Z,3.45
2023-05-03T21:11:03.983Z,3.65
2023-05-03T21:13:35.545Z,3.10
2023-05-03T21:16:02.129Z,3.60
2023-05-03T21:18:28.653Z,3.22
2023-05-03T21:20:55.074Z,3.45
2023-05-03T21:23:21.628Z,3.50
2023-05-03T21:25:48.245Z,2.80
2023-05-03T21:28:15.505Z,3.30
2023-05-03T21:30:42.283Z,3.88
2023-05-03T21:33:08.798Z,3.60
2023-05-03T21:35:35.530Z,3.40
2023-05-03T21:38:01.975Z,3.30
2023-05-03T21:40:28.427Z,3.38
2023-05-03T21:42:55.346Z,3.90
2023-05-03T21:45:23.040Z,3.22
2023-05-03T21:47:49.620Z,3.53
2023-05-03T21:50:16.288Z,3.90
2023-05-03T21:52:42.933Z,3.42
2023-05-03T21:55:09.751Z,3.55
2023-05-03T21:57:37.839Z,3.72
2023-05-03T22:00:07.880Z,3.25
2023-05-03T22:02:35.268Z,3.53
2023-05-03T22:05:01.884Z,3.30
2023-05-03T22:07:28.345Z,3.42
2023-05-03T22:09:55.002Z,4.18
2023-05-03T22:12:23.998Z,3.88
2023-05-03T22:14:50.936Z,3.72
2023-05-03T22:17:17.537Z,3.78
2023-05-03T22:19:44.204Z,3.58
2023-05-03T22:22:11.346Z,3.80
2023-05-03T22:24:37.737Z,3.60
2023-05-03T22:27:04.222Z,3.70
2023-05-03T22:29:30.775Z,3.90
2023-05-03T22:31:57.326Z,4.13
2023-05-03T22:34:23.869Z,4.15
2023-05-03T22:36:50.594Z,3.65
2023-05-03T22:39:17.346Z,4.22
2023-05-03T22:41:44.447Z,4.22
2023-05-03T22:44:10.965Z,4.25
2023-05-03T22:46:37.451Z,4.40
2023-05-03T22:49:04.166Z,3.78
2023-05-03T22:51:31.779Z,4.05
2023-05-03T22:53:58.299Z,4.15
2023-05-03T22:56:24.738Z,4.18
2023-05-03T22:58:53.356Z,4.53
2023-05-03T23:01:19.982Z,4.15
2023-05-03T23:03:46.918Z,4.03
2023-05-03T23:06:14.641Z,4.20
2023-05-03T23:08:41.162Z,4.05
2023-05-03T23:11:07.593Z,4.30
2023-05-03T23:13:34.136Z,4.32
2023-05-03T23:16:01.769Z,4.82
2023-05-03T23:18:28.474Z,4.28
2023-05-03T23:20:55.281Z,4.05
2023-05-03T23:23:21.716Z,4.28
2023-05-03T23:25:48.199Z,4.72
2023-05-03T23:28:14.777Z,4.68
2023-05-03T23:30:43.700Z,4.75
2023-05-03T23:33:11.013Z,4.65
2023-05-03T23:35:38.000Z,4.75
2023-05-03T23:38:04.705Z,4.30
2023-05-03T23:40:31.213Z,4.43
2023-05-03T23:42:57.687Z,5.10
2023-05-03T23:45:24.132Z,4.80
2023-05-03T23:47:50.722Z,4.68
2023-05-03T23:50:17.416Z,4.72
2023-05-03T23:52:43.917Z,4.68
2023-05-03T23:55:10.755Z,4.55
2023-05-03T23:57:37.438Z,4.82
